createdAt,value
2023-01-10T00:00:02.965Z,93.64
2023-01-10T00:04:20.589Z,93.60
2023-01-10T00:08:38.414Z,93.53
2023-01-10T00:13:14.636Z,93.50
2023-01-10T00:17:32.352Z,93.50
2023-01-10T00:21:50.487Z,93.51
2023-01-10T00:26:08.067Z,93.42
2023-01-10T00:30:25.779Z,93.14
2023-01-10T00:34:43.261Z,92.94
2023-01-10T00:39:00.998Z,92.85
2023-01-10T00:43:38.284Z,92.93
2023-01-10T00:47:56.045Z,92.91
2023-01-10T00:52:13.900Z,92.95
2023-01-10T00:56:31.456Z,93.02
2023-01-10T01:00:50.351Z,93.07
2023-01-10T01:05:08.505Z,93.16
2023-01-10T01:09:26.149Z,93.13
2023-01-10T01:13:43.705Z,93.04
2023-01-10T01:18:02.072Z,92.86
2023-01-10T01:22:20.431Z,92.90
2023-01-10T01:26:38.204Z,92.94
2023-01-10T01:30:55.793Z,92.82
2023-01-10T01:35:16.661Z,92.61
2023-01-10T01:39:34.182Z,92.50
2023-01-10T01:44:16.877Z,92.42
2023-01-10T01:48:41.795Z,92.37
2023-01-10T01:53:03.054Z,92.30
2023-01-10T01:57:25.713Z,92.33
2023-01-10T02:01:46.753Z,92.34
2023-01-10T02:06:04.792Z,92.43
2023-01-10T02:10:48.821Z,92.55
2023-01-10T02:15:07.488Z,92.71
2023-01-10T02:19:38.982Z,92.74
2023-01-10T02:24:36.552Z,92.75
2023-01-10T02:29:26.083Z,92.79
2023-01-10T02:34:04.749Z,92.84
2023-01-10T02:38:32.569Z,92.83
2023-01-10T02:43:00.959Z,92.87
2023-01-10T02:47:19.299Z,92.87
2023-01-10T02:51:37.028Z,92.88
2023-01-10T02:56:12.793Z,92.83
2023-01-10T03:00:48.568Z,92.71
2023-01-10T03:05:46.740Z,92.54
2023-01-10T03:10:10.045Z,92.31
2023-01-10T03:14:29.571Z,91.57
2023-01-10T03:19:04.626Z,91.57
2023-01-10T03:23:23.495Z,91.20
2023-01-10T03:28:13.629Z,91.52
2023-01-10T03:32:32.999Z,91.68
2023-01-10T03:37:07.341Z,91.55
2023-01-10T03:41:41.325Z,91.24
2023-01-10T03:46:09.303Z,91.41
2023-01-10T03:50:28.505Z,91.60
2023-01-10T03:54:48.172Z,91.66
2023-01-10T03:59:05.685Z,91.82
2023-01-10T04:03:24.716Z,91.98
2023-01-10T04:07:42.439Z,91.83
2023-01-10T04:12:00.181Z,91.30
2023-01-10T04:16:17.840Z,91.26
2023-01-10T04:20:35.355Z,90.53
2023-01-10T04:24:54.177Z,91.02
2023-01-10T04:29:11.731Z,91.00
2023-01-10T04:33:29.547Z,90.96
2023-01-10T04:37:47.037Z,90.19
2023-01-10T04:42:04.758Z,90.11
2023-01-10T04:46:22.269Z,90.51
2023-01-10T04:50:39.926Z,90.80
2023-01-10T04:54:57.547Z,90.86
2023-01-10T04:59:16.057Z,91.06
2023-01-10T05:03:33.524Z,90.23
2023-01-10T05:07:51.582Z,90.23
2023-01-10T05:12:09.324Z,90.11
2023-01-10T05:16:27.844Z,90.54
2023-01-10T05:20:45.554Z,90.27
2023-01-10T05:25:03.196Z,89.98
2023-01-10T05:29:21.218Z,90.33
2023-01-10T05:33:39.185Z,90.54
2023-01-10T05:37:56.914Z,90.70
2023-01-10T05:42:14.551Z,90.81
2023-01-10T05:46:32.286Z,90.42
2023-01-10T05:50:51.106Z,90.65
2023-01-10T05:55:08.901Z,90.38
2023-01-10T05:59:28.292Z,90.75
2023-01-10T06:03:47.311Z,90.96
2023-01-10T06:08:05.094Z,90.92
2023-01-10T06:12:22.801Z,90.63
2023-01-10T06:16:41.859Z,90.75
2023-01-10T06:20:59.621Z,90.98
2023-01-10T06:25:17.398Z,91.01
2023-01-10T06:29:35.393Z,90.97
2023-01-10T06:33:53.229Z,91.06
2023-01-10T06:38:10.705Z,91.19
2023-01-10T06:42:29.052Z,91.01
2023-01-10T06:46:46.742Z,90.98
2023-01-10T06:51:06.525Z,91.20
2023-01-10T06:55:25.320Z,91.67
2023-01-10T06:59:42.963Z,91.96
2023-01-10T07:04:00.498Z,92.25
2023-01-10T07:08:18.208Z,92.49
2023-01-10T07:12:35.880Z,92.63
2023-01-10T07:16:53.498Z,92.68
2023-01-10T07:21:12.009Z,92.71
2023-01-10T07:25:30.458Z,92.69
2023-01-10T07:29:48.211Z,92.61
2023-01-10T07:34:05.760Z,91.52
2023-01-10T07:38:23.854Z,91.47
2023-01-10T07:42:41.450Z,91.20
2023-01-10T07:46:59.439Z,91.17
2023-01-10T07:51:17.275Z,91.02
2023-01-10T07:55:39.060Z,91.02
2023-01-10T07:59:56.792Z,91.16
2023-01-10T08:04:14.363Z,91.16
2023-01-10T08:08:35.307Z,90.84
2023-01-10T08:12:52.957Z,91.16
2023-01-10T08:17:10.717Z,90.02
2023-01-10T08:21:28.147Z,90.22
2023-01-10T08:25:46.297Z,89.95
2023-01-10T08:30:06.137Z,90.20
2023-01-10T08:34:24.141Z,89.83
2023-01-10T08:38:42.188Z,89.47
2023-01-10T08:43:02.531Z,89.43
2023-01-10T08:47:20.393Z,89.55
2023-01-10T08:51:38.137Z,89.49
2023-01-10T08:55:55.852Z,89.49
2023-01-10T09:00:14.058Z,90.17
2023-01-10T09:04:33.077Z,89.34
2023-01-10T09:08:51.132Z,89.58
2023-01-10T09:13:09.968Z,88.88
2023-01-10T09:17:27.571Z,89.14
2023-01-10T09:21:45.247Z,89.06
2023-01-10T09:26:03.552Z,88.94
2023-01-10T09:30:21.579Z,88.89
2023-01-10T09:34:39.138Z,89.00
2023-01-10T09:38:56.868Z,87.71
2023-01-10T09:43:54.804Z,88.42
2023-01-10T09:48:41.323Z,89.11
2023-01-10T09:53:25.138Z,86.82
2023-01-10T09:57:42.769Z,87.78
2023-01-10T10:02:17.277Z,88.21
2023-01-10T10:06:34.874Z,88.90
2023-01-10T10:11:27.239Z,89.08
2023-01-10T10:16:02.639Z,89.82
2023-01-10T10:20:54.168Z,89.69
2023-01-10T10:26:11.484Z,89.41
2023-01-10T10:30:53.506Z,90.29
2023-01-10T10:35:37.301Z,90.60
2023-01-10T10:39:59.360Z,90.80
2023-01-10T10:44:55.309Z,90.85
2023-01-10T10:49:49.368Z,90.94
2023-01-10T10:54:12.375Z,90.70
2023-01-10T10:58:32.185Z,90.42
2023-01-10T11:03:04.826Z,90.68
2023-01-10T11:07:22.695Z,90.79
2023-01-10T11:11:47.719Z,90.76
2023-01-10T11:16:07.153Z,90.80
2023-01-10T11:20:25.008Z,90.58
2023-01-10T11:24:56.717Z,91.05
2023-01-10T11:29:19.948Z,90.52
2023-01-10T11:33:39.995Z,90.42
2023-01-10T11:38:22.366Z,90.58
2023-01-10T11:42:40.242Z,90.45
2023-01-10T11:47:03.117Z,90.63
2023-01-10T11:51:28.620Z,90.75
2023-01-10T11:55:48.501Z,90.58
2023-01-10T12:00:09.810Z,90.87
2023-01-10T12:04:31.468Z,91.16
2023-01-10T12:08:50.553Z,90.72
2023-01-10T12:13:16.254Z,90.60
2023-01-10T12:17:38.033Z,90.68
2023-01-10T12:22:02.796Z,90.74
2023-01-10T12:26:21.880Z,90.52
2023-01-10T12:30:44.577Z,90.71
2023-01-10T12:35:10.617Z,90.49
2023-01-10T12:39:39.137Z,90.66
2023-01-10T12:44:12.527Z,90.57
2023-01-10T12:48:52.712Z,90.12
2023-01-10T12:53:44.073Z,89.97
2023-01-10T12:58:05.331Z,90.27
2023-01-10T13:02:27.087Z,90.46
2023-01-10T13:06:45.199Z,91.03
2023-01-10T13:11:05.565Z,91.39
2023-01-10T13:15:36.915Z,91.30
2023-01-10T13:20:16.570Z,91.25
2023-01-10T13:24:34.480Z,91.55
2023-01-10T13:29:01.157Z,91.47
2023-01-10T13:33:49.997Z,91.12
2023-01-10T13:38:21.016Z,91.00
2023-01-10T13:42:57.486Z,91.10
2023-01-10T13:47:40.671Z,91.35
2023-01-10T13:52:29.272Z,91.66
2023-01-10T13:56:46.783Z,91.72
2023-01-10T14:01:23.743Z,91.92
2023-01-10T14:05:48.782Z,91.60
2023-01-10T14:10:10.919Z,91.53
2023-01-10T14:14:41.193Z,91.48
2023-01-10T14:18:59.781Z,91.41
2023-01-10T14:23:21.862Z,91.56
2023-01-10T14:27:49.422Z,91.86
2023-01-10T14:32:28.034Z,91.87
2023-01-10T14:36:55.483Z,91.87
2023-01-10T14:41:23.212Z,91.89
2023-01-10T14:46:03.226Z,91.73
2023-01-10T14:50:32.772Z,91.74
2023-01-10T14:55:09.482Z,91.93
2023-01-10T14:59:32.144Z,92.10
2023-01-10T15:03:50.173Z,92.41
2023-01-10T15:08:26.673Z,92.38
2023-01-10T15:12:45.429Z,92.32
2023-01-10T15:17:06.411Z,92.42
2023-01-10T15:21:26.029Z,92.51
2023-01-10T15:25:44.825Z,92.48
2023-01-10T15:30:02.262Z,92.09
2023-01-10T15:34:23.637Z,92.01
2023-01-10T15:38:46.767Z,91.94
2023-01-10T15:43:34.313Z,92.19
2023-01-10T15:47:54.848Z,92.29
2023-01-10T15:52:30.632Z,92.49
2023-01-10T15:57:01.473Z,92.64
2023-01-10T16:01:19.262Z,92.66
2023-01-10T16:05:37.044Z,92.82
2023-01-10T16:10:07.863Z,92.88
2023-01-10T16:14:26.500Z,92.85
2023-01-10T16:18:44.049Z,92.84
2023-01-10T16:23:03.962Z,92.66
2023-01-10T16:27:21.579Z,92.63
2023-01-10T16:31:39.823Z,92.40
2023-01-10T16:36:00.264Z,92.37
2023-01-10T16:40:24.983Z,92.21
2023-01-10T16:44:43.127Z,92.36
2023-01-10T16:49:01.100Z,92.20
2023-01-10T16:53:20.547Z,92.03
2023-01-10T16:57:38.164Z,92.12
2023-01-10T17:01:58.579Z,91.87
2023-01-10T17:06:16.723Z,92.00
2023-01-10T17:10:36.629Z,92.08
2023-01-10T17:14:54.174Z,92.21
2023-01-10T17:19:11.876Z,92.12
2023-01-10T17:23:29.770Z,92.21
2023-01-10T17:27:47.544Z,92.23
2023-01-10T17:32:05.640Z,92.18
2023-01-10T17:36:28.735Z,92.18
2023-01-10T17:40:47.666Z,92.00
2023-01-10T17:45:09.331Z,92.12
2023-01-10T17:49:27.001Z,92.39
2023-01-10T17:53:44.892Z,92.39
2023-01-10T17:58:05.813Z,92.34
2023-01-10T18:02:23.656Z,92.28
2023-01-10T18:06:41.674Z,92.31
2023-01-10T18:11:00.918Z,92.25
2023-01-10T18:15:18.568Z,92.24
2023-01-10T18:19:36.620Z,92.06
2023-01-10T18:23:59.505Z,92.15
2023-01-10T18:28:18.724Z,92.32
2023-01-10T18:32:37.735Z,92.32
2023-01-10T18:36:55.441Z,92.39
2023-01-10T18:41:14.935Z,92.33
2023-01-10T18:45:32.603Z,92.26
2023-01-10T18:49:50.854Z,92.37
2023-01-10T18:54:08.820Z,92.29
2023-01-10T18:58:30.203Z,92.38
2023-01-10T19:02:48.365Z,92.44
2023-01-10T19:07:06.153Z,92.29
2023-01-10T19:11:23.968Z,92.32
2023-01-10T19:15:41.549Z,92.01
2023-01-10T19:19:59.146Z,92.17
2023-01-10T19:24:27.473Z,92.29
2023-01-10T19:28:45.886Z,92.25
2023-01-10T19:33:03.942Z,92.24
2023-01-10T19:37:21.673Z,92.43
2023-01-10T19:41:40.593Z,92.32
2023-01-10T19:45:58.509Z,92.26
2023-01-10T19:50:17.149Z,92.36
2023-01-10T19:54:34.911Z,92.17
2023-01-10T19:58:55.068Z,92.16
2023-01-10T20:03:14.064Z,91.72
2023-01-10T20:07:31.854Z,91.73
2023-01-10T20:11:49.498Z,91.72
2023-01-10T20:16:07.675Z,91.68
2023-01-10T20:20:25.285Z,91.46
2023-01-10T20:24:43.230Z,91.67
2023-01-10T20:29:02.860Z,90.46
2023-01-10T20:33:27.024Z,90.61
2023-01-10T20:37:44.577Z,90.67
2023-01-10T20:42:02.356Z,90.61
2023-01-10T20:46:29.748Z,91.26
2023-01-10T20:50:47.670Z,91.52
2023-01-10T20:55:06.169Z,91.67
2023-01-10T20:59:25.891Z,91.64
2023-01-10T21:03:45.772Z,91.70
2023-01-10T21:08:03.769Z,91.95
2023-01-10T21:12:23.186Z,92.32
2023-01-10T21:16:41.655Z,92.21
2023-01-10T21:21:00.351Z,91.96
2023-01-10T21:25:17.844Z,92.02
2023-01-10T21:29:35.710Z,91.96
2023-01-10T21:33:54.225Z,92.47
2023-01-10T21:38:11.982Z,93.04
2023-01-10T21:42:35.445Z,93.13
2023-01-10T21:46:53.241Z,93.31
2023-01-10T21:51:11.043Z,93.52
2023-01-10T21:55:29.129Z,93.70
2023-01-10T21:59:46.705Z,93.76
2023-01-10T22:04:05.782Z,93.72
2023-01-10T22:08:24.129Z,93.62
2023-01-10T22:12:41.838Z,93.53
2023-01-10T22:16:59.357Z,93.56
2023-01-10T22:21:19.984Z,93.39
2023-01-10T22:25:37.593Z,93.27
2023-01-10T22:29:55.640Z,93.25
2023-01-10T22:34:44.601Z,93.04
2023-01-10T22:39:20.782Z,92.95
2023-01-10T22:43:57.636Z,93.10
2023-01-10T22:48:38.462Z,93.10
2023-01-10T22:53:08.876Z,93.03
2023-01-10T22:57:47.450Z,93.02
2023-01-10T23:02:20.401Z,93.10
2023-01-10T23:06:57.112Z,93.10
2023-01-10T23:11:33.064Z,93.13
2023-01-10T23:16:15.566Z,93.07
2023-01-10T23:20:48.518Z,93.09
2023-01-10T23:25:21.130Z,93.16
2023-01-10T23:29:57.300Z,93.13
2023-01-10T23:34:33.205Z,93.15
2023-01-10T23:39:09.718Z,93.15
2023-01-10T23:43:45.517Z,93.18
2023-01-10T23:48:22.195Z,93.28
2023-01-10T23:52:58.172Z,93.32
2023-01-10T23:57:34.553Z,93.31
